createdAt,value
2019-02-19T00:02:02.712Z,27.03
2019-02-19T00:04:32.093Z,26.37
2019-02-19T00:07:00.929Z,26.57
2019-02-19T00:09:29.825Z,27.40
2019-02-19T00:11:58.805Z,27.47
2019-02-19T00:14:28.832Z,27.03
2019-02-19T00:16:58.695Z,26.13
2019-02-19T00:19:27.486Z,29.07
2019-02-19T00:21:56.279Z,27.17
2019-02-19T00:24:25.165Z,26.47
2019-02-19T00:26:54.500Z,27.77
2019-02-19T00:29:24.774Z,27.60
2019-02-19T00:31:53.611Z,28.70
2019-02-19T00:34:23.103Z,30.40
2019-02-19T00:36:52.939Z,27.27
2019-02-19T00:39:21.774Z,27.43
2019-02-19T00:41:50.569Z,27.33
2019-02-19T00:44:19.407Z,27.07
2019-02-19T00:46:48.156Z,27.60
2019-02-19T00:49:17.616Z,27.10
2019-02-19T00:51:46.399Z,26.80
2019-02-19T00:54:16.450Z,28.47
2019-02-19T00:56:46.329Z,29.87
2019-02-19T00:59:15.267Z,29.07
2019-02-19T01:01:44.597Z,29.30
2019-02-19T01:04:13.495Z,30.10
2019-02-19T01:06:42.430Z,30.57
2019-02-19T01:09:12.375Z,26.47
2019-02-19T01:11:41.198Z,30.77
2019-02-19T01:14:10.153Z,27.30
2019-02-19T01:16:40.243Z,33.03
2019-02-19T01:19:09.019Z,32.80
2019-02-19T01:21:37.909Z,31.03
2019-02-19T01:24:06.688Z,34.43
2019-02-19T01:26:35.523Z,31.37
2019-02-19T01:29:04.367Z,32.13
2019-02-19T01:31:33.176Z,30.00
2019-02-19T01:34:02.050Z,30.77
2019-02-19T01:36:31.439Z,29.53
2019-02-19T01:39:00.578Z,30.97
2019-02-19T01:41:29.366Z,27.27
2019-02-19T01:43:58.754Z,30.27
2019-02-19T01:46:27.548Z,30.13
2019-02-19T01:48:58.951Z,28.20
2019-02-19T01:51:27.740Z,28.13
2019-02-19T01:53:57.974Z,26.20
2019-02-19T01:56:26.887Z,24.93
2019-02-19T01:58:55.723Z,24.30
2019-02-19T02:01:25.322Z,26.70
2019-02-19T02:03:54.731Z,24.30
2019-02-19T02:06:23.523Z,23.00
2019-02-19T02:08:53.639Z,22.60
2019-02-19T02:11:22.458Z,23.40
2019-02-19T02:13:51.959Z,23.57
2019-02-19T02:16:21.722Z,22.90
2019-02-19T02:18:51.407Z,22.90
2019-02-19T02:21:20.258Z,22.70
2019-02-19T02:23:49.248Z,23.37
2019-02-19T02:26:18.039Z,24.70
2019-02-19T02:28:47.894Z,27.47
2019-02-19T02:31:16.947Z,24.97
2019-02-19T02:33:45.730Z,25.53
2019-02-19T02:36:14.579Z,25.07
2019-02-19T02:38:43.407Z,26.30
2019-02-19T02:41:13.043Z,26.60
2019-02-19T02:43:42.130Z,28.17
2019-02-19T02:46:11.219Z,28.93
2019-02-19T02:48:40.080Z,26.53
2019-02-19T02:51:08.951Z,26.47
2019-02-19T02:53:39.044Z,25.83
2019-02-19T02:56:07.895Z,25.57
2019-02-19T02:58:36.779Z,26.80
2019-02-19T03:01:05.686Z,25.40
2019-02-19T03:03:34.571Z,23.80
2019-02-19T03:06:10.610Z,25.43
2019-02-19T03:08:40.017Z,26.23
2019-02-19T03:11:08.837Z,23.77
2019-02-19T03:13:38.840Z,24.43
2019-02-19T03:16:07.646Z,26.83
2019-02-19T03:18:36.445Z,27.03
2019-02-19T03:21:05.322Z,24.10
2019-02-19T03:23:34.741Z,24.77
2019-02-19T03:26:05.297Z,25.03
2019-02-19T03:28:34.005Z,22.27
2019-02-19T03:31:02.912Z,23.47
2019-02-19T03:33:31.993Z,21.93
2019-02-19T03:36:01.136Z,21.57
2019-02-19T03:38:30.488Z,23.20
2019-02-19T03:40:59.275Z,23.83
2019-02-19T03:43:28.589Z,20.83
2019-02-19T03:45:59.322Z,21.63
2019-02-19T03:48:28.739Z,20.70
2019-02-19T03:50:58.228Z,20.93
2019-02-19T03:53:27.030Z,21.67
2019-02-19T03:55:55.925Z,20.83
2019-02-19T03:58:25.939Z,19.97
2019-02-19T04:00:54.726Z,18.63
2019-02-19T04:03:23.554Z,21.07
2019-02-19T04:05:52.355Z,20.30
2019-02-19T04:08:22.241Z,19.20
2019-02-19T04:10:51.065Z,21.57
2019-02-19T04:13:19.867Z,20.60
2019-02-19T04:15:48.788Z,20.67
2019-02-19T04:18:18.440Z,19.87
2019-02-19T04:20:48.878Z,20.97
2019-02-19T04:23:18.996Z,21.13
2019-02-19T04:25:48.818Z,20.33
2019-02-19T04:28:18.687Z,19.67
2019-02-19T04:30:49.296Z,19.33
2019-02-19T04:33:18.211Z,20.10
2019-02-19T04:35:47.080Z,20.97
2019-02-19T04:38:16.648Z,20.23
2019-02-19T04:40:46.174Z,20.67
2019-02-19T04:43:15.928Z,20.43
2019-02-19T04:45:44.703Z,22.80
2019-02-19T04:48:13.500Z,21.33
2019-02-19T04:50:42.322Z,21.97
2019-02-19T04:53:11.157Z,19.93
2019-02-19T04:55:40.055Z,22.50
2019-02-19T04:58:08.990Z,21.70
2019-02-19T05:00:39.041Z,23.10
2019-02-19T05:03:08.546Z,22.33
2019-02-19T05:05:38.187Z,23.10
2019-02-19T05:08:08.237Z,20.30
2019-02-19T05:10:37.493Z,22.90
2019-02-19T05:13:06.257Z,19.40
2019-02-19T05:15:36.588Z,20.63
2019-02-19T05:18:05.330Z,21.63
2019-02-19T05:20:34.731Z,21.53
2019-02-19T05:23:04.247Z,21.53
2019-02-19T05:25:33.136Z,22.67
2019-02-19T05:28:01.964Z,20.50
2019-02-19T05:30:30.971Z,24.23
2019-02-19T05:32:59.750Z,19.83
2019-02-19T05:35:28.715Z,19.30
2019-02-19T05:37:58.707Z,20.97
2019-02-19T05:40:27.530Z,20.53
2019-02-19T05:42:57.591Z,18.20
2019-02-19T05:45:26.477Z,20.00
2019-02-19T05:47:55.252Z,18.67
2019-02-19T05:50:24.106Z,17.53
2019-02-19T05:52:52.888Z,15.87
2019-02-19T05:55:22.400Z,16.50
2019-02-19T05:57:57.817Z,18.43
2019-02-19T06:00:27.295Z,16.00
2019-02-19T06:02:56.148Z,18.17
2019-02-19T06:05:25.491Z,15.77
2019-02-19T06:07:54.887Z,17.93
2019-02-19T06:10:23.639Z,16.63
2019-02-19T06:12:53.296Z,16.27
2019-02-19T06:15:23.854Z,17.37
2019-02-19T06:17:53.200Z,17.13
2019-02-19T06:20:22.060Z,17.43
2019-02-19T06:22:50.926Z,16.90
2019-02-19T06:25:19.729Z,16.17
2019-02-19T06:27:48.535Z,18.03
2019-02-19T06:30:20.639Z,18.80
2019-02-19T06:32:50.416Z,15.70
2019-02-19T06:35:19.771Z,15.60
2019-02-19T06:37:48.579Z,16.73
2019-02-19T06:40:26.431Z,15.40
2019-02-19T06:42:55.298Z,16.43
2019-02-19T06:45:24.122Z,14.60
2019-02-19T06:47:53.696Z,16.93
2019-02-19T06:50:23.206Z,15.20
2019-02-19T06:52:52.117Z,15.80
2019-02-19T06:55:22.326Z,14.10
2019-02-19T06:57:52.072Z,14.80
2019-02-19T07:00:21.515Z,15.90
2019-02-19T07:02:55.309Z,16.17
2019-02-19T07:05:25.000Z,15.93
2019-02-19T07:07:54.402Z,15.43
2019-02-19T07:10:23.264Z,15.03
2019-02-19T07:12:52.126Z,13.47
2019-02-19T07:15:24.179Z,17.43
2019-02-19T07:17:53.002Z,17.20
2019-02-19T07:20:21.897Z,14.17
2019-02-19T07:22:50.683Z,16.53
2019-02-19T07:25:19.540Z,16.90
2019-02-19T07:27:48.470Z,15.33
2019-02-19T07:30:17.352Z,17.80
2019-02-19T07:32:46.147Z,17.23
2019-02-19T07:35:15.015Z,15.57
2019-02-19T07:37:44.001Z,14.93
2019-02-19T07:40:12.847Z,14.77
2019-02-19T07:42:41.668Z,13.13
2019-02-19T07:45:10.776Z,14.03
2019-02-19T07:47:39.659Z,13.60
2019-02-19T07:50:09.256Z,15.23
2019-02-19T07:52:38.066Z,13.67
2019-02-19T07:55:07.968Z,12.63
2019-02-19T07:57:36.827Z,13.67
2019-02-19T08:00:05.889Z,14.77
2019-02-19T08:02:35.544Z,12.13
2019-02-19T08:05:06.760Z,14.50
2019-02-19T08:07:35.723Z,13.63
2019-02-19T08:10:06.306Z,14.03
2019-02-19T08:12:35.185Z,12.87
2019-02-19T08:15:04.284Z,12.40
2019-02-19T08:17:33.709Z,12.57
2019-02-19T08:20:02.022Z,13.43
2019-02-19T08:22:32.334Z,13.07
2019-02-19T08:25:01.662Z,14.23
2019-02-19T08:27:30.507Z,11.87
2019-02-19T08:29:59.998Z,12.23
2019-02-19T08:32:28.828Z,11.60
2019-02-19T08:34:57.638Z,10.40
2019-02-19T08:37:26.481Z,12.63
2019-02-19T08:39:57.065Z,13.33
2019-02-19T08:42:26.219Z,12.27
2019-02-19T08:44:56.068Z,12.10
2019-02-19T08:47:24.871Z,13.10
2019-02-19T08:49:53.798Z,13.37
2019-02-19T08:52:22.617Z,14.43
2019-02-19T08:54:51.470Z,13.57
2019-02-19T08:57:20.320Z,13.70
2019-02-19T08:59:50.983Z,14.03
2019-02-19T09:02:20.787Z,14.27
2019-02-19T09:04:50.587Z,14.90
2019-02-19T09:07:19.448Z,16.27
2019-02-19T09:09:48.268Z,16.10
2019-02-19T09:12:17.068Z,15.80
2019-02-19T09:14:45.875Z,17.07
2019-02-19T09:17:14.691Z,16.83
2019-02-19T09:19:43.775Z,17.77
2019-02-19T09:22:12.586Z,16.50
2019-02-19T09:24:41.442Z,16.63
2019-02-19T09:27:10.235Z,15.70
2019-02-19T09:29:39.067Z,16.73
2019-02-19T09:32:07.898Z,15.37
2019-02-19T09:34:36.733Z,14.80
2019-02-19T09:37:05.556Z,15.90
2019-02-19T09:39:35.247Z,14.97
2019-02-19T09:42:04.061Z,14.90
2019-02-19T09:44:35.061Z,14.60
2019-02-19T09:47:05.066Z,14.27
2019-02-19T09:49:34.052Z,15.23
2019-02-19T09:52:02.970Z,15.40
2019-02-19T09:54:31.786Z,14.47
2019-02-19T09:57:01.839Z,14.70
2019-02-19T09:59:30.659Z,14.47
2019-02-19T10:02:00.167Z,14.37
2019-02-19T10:04:29.866Z,14.10
2019-02-19T10:06:59.214Z,15.67
2019-02-19T10:09:28.057Z,14.90
2019-02-19T10:11:57.515Z,14.67
2019-02-19T10:14:27.380Z,14.37
2019-02-19T10:16:57.682Z,12.83
2019-02-19T10:19:26.515Z,13.97
2019-02-19T10:21:55.350Z,12.90
2019-02-19T10:24:26.126Z,13.00
2019-02-19T10:26:54.931Z,13.83
2019-02-19T10:29:24.663Z,11.50
2019-02-19T10:31:53.501Z,12.97
2019-02-19T10:34:24.154Z,13.03
2019-02-19T10:36:52.959Z,11.97
2019-02-19T10:39:22.288Z,16.33
2019-02-19T10:41:52.961Z,12.70
2019-02-19T10:44:20.079Z,11.03
2019-02-19T10:46:53.378Z,9.47
2019-02-19T10:49:24.539Z,11.43
2019-02-19T10:51:54.597Z,12.20
2019-02-19T10:54:23.467Z,11.00
2019-02-19T10:56:52.312Z,11.57
2019-02-19T10:59:23.022Z,10.67
2019-02-19T11:01:53.078Z,11.63
2019-02-19T11:04:22.223Z,14.53
2019-02-19T11:06:51.956Z,12.03
2019-02-19T11:09:21.220Z,11.07
2019-02-19T11:11:50.043Z,10.33
2019-02-19T11:14:19.443Z,8.70
2019-02-19T11:16:48.265Z,9.73
2019-02-19T11:19:17.100Z,10.17
2019-02-19T11:21:45.904Z,8.87
2019-02-19T11:24:14.824Z,8.07
2019-02-19T11:26:44.684Z,7.90
2019-02-19T11:29:13.779Z,7.00
2019-02-19T11:31:42.622Z,7.47
2019-02-19T11:34:12.644Z,7.00
2019-02-19T11:36:41.426Z,6.97
2019-02-19T11:39:11.084Z,6.10
2019-02-19T11:41:42.639Z,6.33
2019-02-19T11:44:11.494Z,5.90
2019-02-19T11:46:40.318Z,5.87
2019-02-19T11:49:09.297Z,6.03
2019-02-19T11:51:38.083Z,5.40
2019-02-19T11:54:06.895Z,5.87
2019-02-19T11:56:35.722Z,5.70
2019-02-19T11:59:05.300Z,5.27
2019-02-19T12:01:34.223Z,5.77
2019-02-19T12:04:03.468Z,6.20
2019-02-19T12:06:32.316Z,8.40
2019-02-19T12:09:01.114Z,5.40
2019-02-19T12:11:30.834Z,5.33
2019-02-19T12:14:01.459Z,4.77
2019-02-19T12:16:30.328Z,7.63
2019-02-19T12:19:10.396Z,6.93
2019-02-19T12:21:39.262Z,5.10
2019-02-19T12:24:08.154Z,6.13
2019-02-19T12:26:36.983Z,4.97
2019-02-19T12:29:06.992Z,5.77
2019-02-19T12:31:36.266Z,4.03
2019-02-19T12:34:05.172Z,4.83
2019-02-19T12:36:33.989Z,4.30
2019-02-19T12:39:02.790Z,4.10
2019-02-19T12:41:32.044Z,4.27
2019-02-19T12:44:03.239Z,4.20
2019-02-19T12:46:32.070Z,4.73
2019-02-19T12:49:01.498Z,4.03
2019-02-19T12:51:31.800Z,4.07
2019-02-19T12:54:01.752Z,4.23
2019-02-19T12:56:30.599Z,4.57
2019-02-19T12:59:00.022Z,4.63
2019-02-19T13:01:28.840Z,4.17
2019-02-19T13:04:01.757Z,3.80
2019-02-19T13:06:31.970Z,4.97
2019-02-19T13:09:01.966Z,4.20
2019-02-19T13:11:33.910Z,4.27
2019-02-19T13:14:04.332Z,3.87
2019-02-19T13:16:33.111Z,3.23
2019-02-19T13:19:03.958Z,3.47
2019-02-19T13:21:33.060Z,3.70
2019-02-19T13:24:02.949Z,3.63
2019-02-19T13:26:34.137Z,2.93
2019-02-19T13:29:02.988Z,3.57
2019-02-19T13:31:31.863Z,3.13
2019-02-19T13:34:03.711Z,3.37
2019-02-19T13:36:34.472Z,3.43
2019-02-19T13:39:05.663Z,3.73
2019-02-19T13:41:37.043Z,3.30
2019-02-19T13:44:06.488Z,3.40
2019-02-19T13:46:35.268Z,3.40
2019-02-19T13:49:11.840Z,3.03
2019-02-19T13:51:35.144Z,3.80
2019-02-19T13:55:07.104Z,3.30
2019-02-19T13:57:39.012Z,3.30
2019-02-19T14:00:08.442Z,3.37
2019-02-19T14:02:37.992Z,2.63
2019-02-19T14:05:08.573Z,3.17
2019-02-19T14:07:36.442Z,2.93
2019-02-19T14:10:05.727Z,2.57
2019-02-19T14:12:34.531Z,2.93
2019-02-19T14:15:07.539Z,3.20
2019-02-19T14:17:37.943Z,2.90
2019-02-19T14:20:11.015Z,3.17
2019-02-19T14:22:44.015Z,3.00
2019-02-19T14:25:35.455Z,2.73
2019-02-19T14:28:40.599Z,2.70
2019-02-19T14:31:19.812Z,4.20
2019-02-19T14:33:55.217Z,2.60
2019-02-19T14:36:31.163Z,2.57
2019-02-19T14:39:05.415Z,2.90
2019-02-19T14:41:41.584Z,2.47
2019-02-19T14:44:15.529Z,2.47
2019-02-19T14:46:59.684Z,3.17
2019-02-19T14:51:36.095Z,2.17
2019-02-19T14:54:18.109Z,2.43
2019-02-19T14:56:55.965Z,2.83
2019-02-19T15:00:28.461Z,2.13
2019-02-19T15:03:02.309Z,2.40
2019-02-19T15:05:36.161Z,2.47
2019-02-19T15:08:10.927Z,2.70
2019-02-19T15:12:53.923Z,2.87
2019-02-19T15:16:01.791Z,2.47
2019-02-19T15:19:39.658Z,2.53
2019-02-19T15:22:14.583Z,2.13
2019-02-19T15:24:49.539Z,1.90
2019-02-19T15:27:53.861Z,2.20
2019-02-19T15:31:31.607Z,2.00
2019-02-19T15:34:06.331Z,2.87
2019-02-19T15:36:40.158Z,2.50
2019-02-19T15:39:15.149Z,1.83
2019-02-19T15:41:49.898Z,2.60
2019-02-19T15:44:22.879Z,1.87
2019-02-19T15:46:59.889Z,2.27
2019-02-19T15:49:34.810Z,2.37
2019-02-19T15:52:07.808Z,2.10
2019-02-19T15:56:49.454Z,2.43
2019-02-19T15:59:26.446Z,1.90
2019-02-19T16:02:01.062Z,2.43
2019-02-19T16:04:44.669Z,2.30
2019-02-19T16:07:23.540Z,2.23
2019-02-19T16:09:56.595Z,2.33
2019-02-19T16:12:38.407Z,2.47
2019-02-19T16:15:12.748Z,2.50
2019-02-19T16:17:46.831Z,2.07
2019-02-19T16:20:32.742Z,3.00
2019-02-19T16:23:07.782Z,2.70
2019-02-19T16:25:46.087Z,3.27
2019-02-19T16:28:22.687Z,3.20
2019-02-19T16:30:56.959Z,2.70
2019-02-19T16:33:30.979Z,2.63
2019-02-19T16:36:07.874Z,2.60
2019-02-19T16:38:43.884Z,3.27
2019-02-19T16:41:19.451Z,3.57
2019-02-19T16:43:55.723Z,3.27
2019-02-19T16:46:41.632Z,3.10
2019-02-19T16:49:47.060Z,2.67
2019-02-19T16:52:23.469Z,3.97
2019-02-19T16:54:59.444Z,2.93
2019-02-19T16:57:34.017Z,2.97
2019-02-19T17:00:08.537Z,2.80
2019-02-19T17:03:17.908Z,3.07
2019-02-19T17:05:55.772Z,3.10
2019-02-19T17:09:31.651Z,3.70
2019-02-19T17:12:08.666Z,4.23
2019-02-19T17:14:42.987Z,3.20
2019-02-19T17:17:28.986Z,3.60
2019-02-19T17:20:01.987Z,3.30
2019-02-19T17:23:43.830Z,3.77
2019-02-19T17:26:18.648Z,4.23
2019-02-19T17:28:51.731Z,4.03
2019-02-19T17:31:25.551Z,4.17
2019-02-19T17:33:59.062Z,4.20
2019-02-19T17:36:32.916Z,3.70
2019-02-19T17:39:07.738Z,3.77
2019-02-19T17:41:43.336Z,5.30
2019-02-19T17:44:17.971Z,6.20
2019-02-19T17:46:54.958Z,4.10
2019-02-19T17:49:29.386Z,4.27
2019-02-19T17:52:04.949Z,4.43
2019-02-19T17:54:41.864Z,4.77
2019-02-19T17:57:17.870Z,4.10
2019-02-19T18:00:55.584Z,4.67
2019-02-19T18:03:32.153Z,4.63
2019-02-19T18:06:06.258Z,4.70
2019-02-19T18:09:11.734Z,5.40
2019-02-19T18:13:50.899Z,5.80
2019-02-19T18:16:24.916Z,5.23
2019-02-19T18:18:54.831Z,4.73
2019-02-19T18:21:23.700Z,4.77
2019-02-19T18:23:52.481Z,5.00
2019-02-19T18:26:21.379Z,4.60
2019-02-19T18:28:51.126Z,5.50
2019-02-19T18:31:19.979Z,6.33
2019-02-19T18:33:48.767Z,6.00
2019-02-19T18:36:17.575Z,5.67
2019-02-19T18:38:46.386Z,5.53
2019-02-19T18:41:15.201Z,4.10
2019-02-19T18:43:44.096Z,4.53
2019-02-19T18:46:12.925Z,5.80
2019-02-19T18:48:41.791Z,5.77
2019-02-19T18:51:10.649Z,5.90
2019-02-19T18:53:39.789Z,5.27
2019-02-19T18:56:09.678Z,5.03
2019-02-19T18:58:38.458Z,5.07
2019-02-19T19:01:08.666Z,4.27
2019-02-19T19:03:36.479Z,5.10
2019-02-19T19:06:05.314Z,4.20
2019-02-19T19:08:34.208Z,4.23
2019-02-19T19:11:03.892Z,4.90
2019-02-19T19:13:33.303Z,4.37
2019-02-19T19:16:02.101Z,4.83
2019-02-19T19:18:31.528Z,4.70
2019-02-19T19:21:07.994Z,5.90
2019-02-19T19:23:30.877Z,5.10
2019-02-19T19:26:01.414Z,8.67
2019-02-19T19:28:30.977Z,7.90
2019-02-19T19:30:59.800Z,7.87
2019-02-19T19:33:28.588Z,16.60
2019-02-19T19:35:58.420Z,21.83
2019-02-19T19:38:27.266Z,12.43
2019-02-19T19:40:56.095Z,7.03
2019-02-19T19:43:25.029Z,5.53
2019-02-19T19:45:54.466Z,5.40
2019-02-19T19:48:24.190Z,5.70
2019-02-19T19:50:53.877Z,6.17
2019-02-19T19:53:22.713Z,6.33
2019-02-19T19:55:51.599Z,6.47
2019-02-19T19:58:21.912Z,5.37
2019-02-19T20:00:50.766Z,4.43
2019-02-19T20:03:19.568Z,4.83
2019-02-19T20:05:48.372Z,5.33
2019-02-19T20:08:19.738Z,4.90
2019-02-19T20:10:48.826Z,5.10
2019-02-19T20:13:17.659Z,4.50
2019-02-19T20:15:46.414Z,4.67
2019-02-19T20:18:15.295Z,5.37
2019-02-19T20:20:44.207Z,7.10
2019-02-19T20:23:14.148Z,6.80
2019-02-19T20:25:45.243Z,5.90
2019-02-19T20:28:15.223Z,6.13
2019-02-19T20:30:44.039Z,5.77
2019-02-19T20:33:15.399Z,5.27
2019-02-19T20:35:44.268Z,5.33
2019-02-19T20:38:13.697Z,5.40
2019-02-19T20:40:42.560Z,5.47
2019-02-19T20:43:12.501Z,6.83
2019-02-19T20:45:42.943Z,5.87
2019-02-19T20:48:11.748Z,6.73
2019-02-19T20:50:40.680Z,5.60
2019-02-19T20:53:10.407Z,5.33
2019-02-19T20:55:39.925Z,6.17
2019-02-19T20:58:08.750Z,7.77
2019-02-19T21:00:39.148Z,10.30
2019-02-19T21:03:11.053Z,7.43
2019-02-19T21:05:40.338Z,5.60
2019-02-19T21:08:09.327Z,4.93
2019-02-19T21:10:38.770Z,5.20
2019-02-19T21:13:08.892Z,5.10
2019-02-19T21:15:37.806Z,4.67
2019-02-19T21:18:06.629Z,5.43
2019-02-19T21:20:36.010Z,5.63
2019-02-19T21:23:04.879Z,5.73
2019-02-19T21:25:34.238Z,4.73
2019-02-19T21:28:03.658Z,4.77
2019-02-19T21:30:32.449Z,5.07
2019-02-19T21:33:01.328Z,5.47
2019-02-19T21:35:30.126Z,5.27
2019-02-19T21:38:00.288Z,4.77
2019-02-19T21:40:29.524Z,4.73
2019-02-19T21:42:58.372Z,4.93
2019-02-19T21:45:27.807Z,5.23
2019-02-19T21:47:56.586Z,4.60
2019-02-19T21:50:26.070Z,4.70
2019-02-19T21:52:55.426Z,4.40
2019-02-19T21:55:24.262Z,4.03
2019-02-19T21:57:53.086Z,5.17
2019-02-19T22:00:22.803Z,4.60
2019-02-19T22:02:52.525Z,4.70
2019-02-19T22:05:21.352Z,5.13
2019-02-19T22:07:50.180Z,5.20
2019-02-19T22:10:18.990Z,4.63
2019-02-19T22:12:48.287Z,6.40
2019-02-19T22:15:17.907Z,6.17
2019-02-19T22:17:46.701Z,6.50
2019-02-19T22:20:19.668Z,7.17
2019-02-19T22:22:48.565Z,5.10
2019-02-19T22:25:17.364Z,5.27
2019-02-19T22:27:46.144Z,4.70
2019-02-19T22:30:15.019Z,4.33
2019-02-19T22:32:43.882Z,5.20
2019-02-19T22:35:12.662Z,4.93
2019-02-19T22:37:42.315Z,4.90
2019-02-19T22:40:11.173Z,5.23
2019-02-19T22:42:39.992Z,5.67
2019-02-19T22:45:08.823Z,5.53
2019-02-19T22:47:37.709Z,4.77
2019-02-19T22:50:07.102Z,4.40
2019-02-19T22:52:35.383Z,4.83
2019-02-19T22:55:27.668Z,4.77
2019-02-19T22:57:57.164Z,4.60
2019-02-19T23:00:32.079Z,5.57
2019-02-19T23:03:01.450Z,5.90
2019-02-19T23:05:30.262Z,5.63
2019-02-19T23:07:59.711Z,5.93
2019-02-19T23:10:29.236Z,4.80
2019-02-19T23:12:58.096Z,5.37
2019-02-19T23:15:26.955Z,5.10
2019-02-19T23:17:55.726Z,6.07
2019-02-19T23:20:24.519Z,5.03
2019-02-19T23:22:53.366Z,6.17
2019-02-19T23:25:22.175Z,5.43
2019-02-19T23:27:51.019Z,5.73
2019-02-19T23:30:19.830Z,5.90
2019-02-19T23:32:48.666Z,5.00
2019-02-19T23:35:27.624Z,6.40
2019-02-19T23:37:56.845Z,4.60
2019-02-19T23:40:26.191Z,4.73
2019-02-19T23:42:54.983Z,4.93
2019-02-19T23:45:25.507Z,4.33
2019-02-19T23:47:54.602Z,4.90
2019-02-19T23:50:23.597Z,4.87
2019-02-19T23:52:52.387Z,6.03
2019-02-19T23:55:21.271Z,6.53
2019-02-19T23:57:51.573Z,5.97
